Time;durP1;ratioP1;P1;durP2;ratioP2;P2;SDS_P1;SDS_P2;PMS_P1;PMS_P2;Temp;Humidity;BMP_temperature;BMP_pressure;BME280_temperature;BME280_humidity;BME280_pressure;Samples;Min_cycle;Max_cycle;Signal;HPM_P1;HPM_P2
2021/05/04 00:00:41;;;;;;;5.15;3.70;;;7.30;64.70;;;;;;4983062;28;20033;-84
2021/05/04 00:03:07;;;;;;;6.90;3.58;;;7.30;64.80;;;;;;5022797;28;20035;-83
2021/05/04 00:05:32;;;;;;;6.32;3.60;;;7.20;64.90;;;;;;5032929;28;20043;-84
2021/05/04 00:07:58;;;;;;;5.78;3.15;;;7.20;65.10;;;;;;4981339;28;20034;-86
2021/05/04 00:10:24;;;;;;;3.80;3.20;;;7.20;65.10;;;;;;4979932;28;20026;-86
2021/05/04 00:12:49;;;;;;;4.70;3.83;;;7.20;65.10;;;;;;4979958;28;20034;-87
2021/05/04 00:15:15;;;;;;;5.45;3.40;;;7.20;65.10;;;;;;4984354;28;20044;-85
2021/05/04 00:17:41;;;;;;;3.53;3.22;;;7.20;65.20;;;;;;4994956;28;20022;-86
2021/05/04 00:20:07;;;;;;;3.05;2.72;;;7.20;65.20;;;;;;4981451;28;20034;-86
2021/05/04 00:22:33;;;;;;;8.25;4.45;;;7.20;65.30;;;;;;5011361;28;20480;-86
2021/05/04 00:24:59;;;;;;;3.92;2.85;;;7.20;65.40;;;;;;4978385;28;20178;-85
2021/05/04 00:27:25;;;;;;;3.72;3.05;;;7.20;65.40;;;;;;4977603;28;20078;-83
2021/05/04 00:29:50;;;;;;;4.93;3.30;;;7.20;65.40;;;;;;4978550;28;20374;-84
2021/05/04 00:32:16;;;;;;;5.35;4.00;;;7.10;65.40;;;;;;4978960;28;20042;-84
2021/05/04 00:34:42;;;;;;;5.18;3.40;;;7.10;65.40;;;;;;4979071;28;20075;-83
2021/05/04 00:37:07;;;;;;;7.93;4.40;;;7.10;65.40;;;;;;5009834;28;20171;-85
2021/05/04 00:39:37;;;;;;;4.93;3.75;;;7.10;66.10;;;;;;4989381;28;20026;-84
2021/05/04 00:42:04;;;;;;;4.68;3.10;;;7.10;65.50;;;;;;4994252;28;20039;-83
2021/05/04 00:44:30;;;;;;;3.90;3.25;;;7.10;65.60;;;;;;5011363;28;20049;-83
2021/05/04 00:46:56;;;;;;;6.20;3.28;;;7.00;65.50;;;;;;4978722;28;20027;-85
2021/05/04 00:49:22;;;;;;;7.03;3.53;;;7.00;65.60;;;;;;4979047;28;20038;-84
2021/05/04 00:51:50;;;;;;;3.17;2.88;;;7.00;65.60;;;;;;4978590;28;20027;-84
2021/05/04 00:54:17;;;;;;;3.92;3.15;;;7.00;65.60;;;;;;5009932;28;20050;-84
2021/05/04 00:56:43;;;;;;;4.50;3.05;;;7.00;65.70;;;;;;4978126;28;20112;-83
2021/05/04 00:59:11;;;;;;;7.07;3.17;;;6.90;65.80;;;;;;4977697;28;20039;-83
2021/05/04 01:01:37;;;;;;;4.20;3.10;;;7.00;66.00;;;;;;4978891;28;20027;-83
2021/05/04 01:04:06;;;;;;;3.97;3.30;;;6.90;66.00;;;;;;4978225;28;20384;-84
2021/05/04 01:06:32;;;;;;;5.57;3.20;;;6.90;66.10;;;;;;4978533;28;20031;-84
2021/05/04 01:08:58;;;;;;;3.72;3.20;;;6.90;66.30;;;;;;4978616;28;20042;-84
2021/05/04 01:11:24;;;;;;;4.45;3.45;;;6.90;66.40;;;;;;4978616;28;20035;-84
2021/05/04 01:13:56;;;;;;;5.68;3.50;;;6.80;66.40;;;;;;4978297;28;20022;-84
2021/05/04 01:16:22;;;;;;;5.32;3.25;;;6.80;66.50;;;;;;5024247;28;20031;-83
2021/05/04 01:18:48;;;;;;;5.85;3.25;;;6.80;66.60;;;;;;4999347;28;20034;-84
2021/05/04 01:21:14;;;;;;;4.38;3.30;;;6.80;66.70;;;;;;4999569;28;20015;-83
2021/05/04 01:23:39;;;;;;;4.60;3.42;;;6.80;66.80;;;;;;4994180;28;20098;-83
2021/05/04 01:26:05;;;;;;;8.13;3.55;;;6.70;66.80;;;;;;4981714;28;20074;-83
2021/05/04 01:28:32;;;;;;;3.97;3.38;;;6.70;66.90;;;;;;4979363;28;20030;-82
2021/05/04 01:30:57;;;;;;;4.78;3.65;;;6.70;67.00;;;;;;5011980;28;20023;-83
2021/05/04 01:33:23;;;;;;;5.47;4.20;;;6.70;67.00;;;;;;5009626;28;20033;-82
2021/05/04 01:35:49;;;;;;;5.20;3.70;;;6.70;67.20;;;;;;4977718;28;20461;-82
2021/05/04 01:38:16;;;;;;;6.22;4.00;;;6.60;67.20;;;;;;4976958;28;20370;-83
2021/05/04 01:40:42;;;;;;;7.40;3.63;;;6.60;67.30;;;;;;4977057;28;20062;-82
2021/05/04 01:43:08;;;;;;;8.63;4.35;;;6.60;67.50;;;;;;4977098;28;20033;-82
2021/05/04 01:45:34;;;;;;;5.35;4.18;;;6.60;67.60;;;;;;5008612;28;20109;-82
2021/05/04 01:48:00;;;;;;;7.35;4.53;;;6.60;67.70;;;;;;4977070;28;20031;-82
2021/05/04 01:50:26;;;;;;;4.57;4.07;;;6.50;67.80;;;;;;4988022;28;20066;-82
2021/05/04 01:52:51;;;;;;;6.32;3.85;;;6.50;67.90;;;;;;4985888;28;20082;-83
2021/05/04 01:55:17;;;;;;;8.02;4.38;;;6.50;68.10;;;;;;5012437;28;20073;-82
2021/05/04 01:57:43;;;;;;;4.20;3.80;;;6.40;68.20;;;;;;4977921;28;20027;-83
2021/05/04 02:00:10;;;;;;;5.78;3.63;;;6.40;68.30;;;;;;5009859;28;20110;-83
2021/05/04 02:02:36;;;;;;;4.38;3.80;;;6.40;68.50;;;;;;4977747;28;20023;-82
2021/05/04 02:05:03;;;;;;;4.30;3.50;;;6.30;68.70;;;;;;4978227;28;20054;-82
2021/05/04 02:07:29;;;;;;;5.63;3.50;;;6.30;68.80;;;;;;4977622;28;20033;-83
2021/05/04 02:09:56;;;;;;;5.03;3.80;;;6.30;68.90;;;;;;5008764;28;20030;-83
2021/05/04 02:12:22;;;;;;;5.10;3.70;;;6.30;69.10;;;;;;4977008;28;20030;-83
2021/05/04 02:14:48;;;;;;;5.95;4.13;;;6.20;69.20;;;;;;4976815;28;20022;-83
2021/05/04 02:17:14;;;;;;;5.50;4.25;;;6.20;69.40;;;;;;4976719;28;20042;-83
2021/05/04 02:19:40;;;;;;;6.70;4.32;;;6.20;69.70;;;;;;4976717;28;20751;-83
2021/05/04 02:22:05;;;;;;;5.45;4.47;;;6.10;69.80;;;;;;4977069;28;20126;-83
2021/05/04 02:24:31;;;;;;;6.25;4.43;;;6.10;70.00;;;;;;5010855;28;20090;-84
2021/05/04 02:26:57;;;;;;;4.85;3.75;;;6.10;70.10;;;;;;4993429;28;20122;-86
2021/05/04 02:29:23;;;;;;;11.77;4.25;;;6.00;70.20;;;;;;4977723;28;20478;-85
2021/05/04 02:31:48;;;;;;;6.10;4.45;;;6.10;70.40;;;;;;4977495;28;20035;-86
2021/05/04 02:34:14;;;;;;;7.07;3.90;;;6.00;70.50;;;;;;4976493;28;20386;-77
2021/05/04 02:36:40;;;;;;;4.60;4.15;;;6.10;70.80;;;;;;5007570;28;20034;-79
2021/05/04 02:39:07;;;;;;;5.13;3.92;;;6.10;71.40;;;;;;4974075;28;20058;-79
2021/05/04 02:41:33;;;;;;;6.15;4.03;;;6.50;72.30;;;;;;4974172;28;20031;-78
2021/05/04 02:44:00;;;;;;;5.32;3.83;;;7.00;72.30;;;;;;4974295;28;20034;-78
2021/05/04 02:46:29;;;;;;;6.25;4.18;;;7.60;71.80;;;;;;5005613;28;20050;-79
2021/05/04 02:48:55;;;;;;;5.20;3.97;;;8.20;70.80;;;;;;4974255;28;20058;-78
2021/05/04 02:51:20;;;;;;;6.70;4.05;;;8.90;69.80;;;;;;4973011;28;20466;-79
2021/05/04 02:53:46;;;;;;;6.22;3.83;;;9.60;68.50;;;;;;4974487;28;20038;-79
2021/05/04 02:56:12;;;;;;;9.65;4.03;;;10.30;67.10;;;;;;4974911;28;20102;-79
2021/05/04 02:58:38;;;;;;;5.75;3.90;;;11.10;65.60;;;;;;4974427;28;20022;-79
2021/05/04 03:01:04;;;;;;;5.65;3.78;;;11.80;64.10;;;;;;4973121;28;20031;-79
2021/05/04 03:03:32;;;;;;;5.40;4.20;;;12.50;62.60;;;;;;4973380;28;20097;-79
2021/05/04 03:05:58;;;;;;;5.45;3.72;;;13.30;61.20;;;;;;4974314;28;20022;-79
2021/05/04 03:08:24;;;;;;;7.78;4.25;;;14.00;59.70;;;;;;4974111;28;20031;-78
2021/05/04 03:10:50;;;;;;;6.95;3.90;;;14.70;58.00;;;;;;4973713;28;20054;-78
2021/05/04 03:13:23;;;;;;;5.53;4.20;;;15.30;56.30;;;;;;4973681;28;20489;-78
2021/05/04 03:15:49;;;;;;;6.97;3.90;;;16.00;54.60;;;;;;4973517;28;20416;-78
2021/05/04 03:18:14;;;;;;;3.60;2.92;;;16.70;53.60;;;;;;4973616;28;20023;-78
2021/05/04 03:20:40;;;;;;;4.78;3.40;;;17.40;52.20;;;;;;4973968;28;20031;-79
2021/05/04 03:23:06;;;;;;;6.72;3.85;;;18.10;50.60;;;;;;4973582;28;20031;-78
2021/05/04 03:25:31;;;;;;;10.07;3.88;;;18.80;49.40;;;;;;4973381;28;20027;-78
2021/05/04 03:27:59;;;;;;;10.05;3.70;;;19.30;48.10;;;;;;4973502;28;20057;-78
2021/05/04 03:30:26;;;;;;;5.32;3.65;;;20.00;47.00;;;;;;4976139;28;20023;-84
2021/05/04 03:32:52;;;;;;;4.85;3.42;;;20.50;45.80;;;;;;4975862;28;20031;-86
2021/05/04 03:35:18;;;;;;;5.65;3.60;;;21.00;44.90;;;;;;4986584;28;20026;-85
2021/05/04 03:37:47;;;;;;;8.38;3.53;;;21.50;43.90;;;;;;5018048;28;20034;-86
2021/05/04 03:40:13;;;;;;;9.07;3.60;;;22.10;42.80;;;;;;4976968;28;20022;-86
2021/05/04 03:42:39;;;;;;;5.82;3.70;;;22.60;42.00;;;;;;4976098;28;20022;-85
2021/05/04 03:45:07;;;;;;;13.90;5.25;;;23.10;41.20;;;;;;5007394;28;20038;-85
2021/05/04 03:47:33;;;;;;;10.35;3.83;;;23.70;40.30;;;;;;4976255;28;20109;-85
2021/05/04 03:49:58;;;;;;;4.13;3.70;;;24.20;39.30;;;;;;4975701;28;20118;-86
2021/05/04 03:52:24;;;;;;;12.10;5.85;;;24.70;38.70;;;;;;4976204;28;20030;-85
2021/05/04 03:54:50;;;;;;;4.78;3.70;;;25.20;38.10;;;;;;4976237;28;20030;-85
2021/05/04 03:57:16;;;;;;;6.40;3.92;;;25.60;37.40;;;;;;4975898;28;20019;-85
2021/05/04 03:59:41;;;;;;;7.90;3.50;;;26.00;36.90;;;;;;4976183;28;20027;-85
2021/05/04 04:02:07;;;;;;;7.85;3.83;;;26.40;36.20;;;;;;4976754;28;20027;-85
2021/05/04 04:04:33;;;;;;;5.60;3.30;;;26.80;35.80;;;;;;4982693;28;20371;-85
2021/05/04 04:06:59;;;;;;;3.97;3.67;;;27.20;35.20;;;;;;4981356;28;20097;-84
2021/05/04 04:09:24;;;;;;;3.60;3.30;;;27.50;34.90;;;;;;5011301;28;20426;-84
2021/05/04 04:11:50;;;;;;;6.13;3.20;;;27.80;34.30;;;;;;4986244;28;20027;-85
2021/05/04 04:14:16;;;;;;;4.65;3.50;;;28.20;34.00;;;;;;4979848;28;20114;-84
2021/05/04 04:16:41;;;;;;;3.50;3.03;;;28.50;33.60;;;;;;4979313;28;20023;-84
2021/05/04 04:19:10;;;;;;;3.97;3.42;;;28.80;33.40;;;;;;4979055;28;20023;-85
2021/05/04 04:21:36;;;;;;;5.95;3.83;;;29.10;32.80;;;;;;4979069;28;20406;-84
2021/05/04 04:24:02;;;;;;;4.88;4.10;;;29.50;32.60;;;;;;4976854;28;20402;-78
2021/05/04 04:26:28;;;;;;;5.07;3.30;;;29.80;32.10;;;;;;4975550;28;20062;-79
2021/05/04 04:28:55;;;;;;;8.18;3.45;;;30.10;31.90;;;;;;4975753;28;20101;-78
2021/05/04 04:31:21;;;;;;;6.40;3.28;;;30.40;31.70;;;;;;4975810;28;20118;-78
2021/05/04 04:33:46;;;;;;;6.22;3.65;;;30.80;31.30;;;;;;4975579;28;20453;-79
2021/05/04 04:36:12;;;;;;;5.75;3.35;;;31.10;31.60;;;;;;5006704;28;20081;-79
2021/05/04 04:38:38;;;;;;;4.32;3.55;;;31.40;30.40;;;;;;4979098;28;20065;-86
2021/05/04 04:41:04;;;;;;;20.02;10.43;;;31.60;30.10;;;;;;4979305;28;20747;-86
2021/05/04 04:43:29;;;;;;;5.32;3.85;;;31.80;30.00;;;;;;4977920;28;20102;-82
2021/05/04 04:45:58;;;;;;;5.63;4.13;;;32.10;29.90;;;;;;5015070;28;20042;-79
2021/05/04 04:48:24;;;;;;;8.82;5.13;;;32.30;29.60;;;;;;5009399;28;20039;-81
2021/05/04 04:50:52;;;;;;;3.75;3.33;;;32.60;29.50;;;;;;4977896;28;20548;-82
2021/05/04 04:53:18;;;;;;;4.85;4.35;;;32.80;29.30;;;;;;4975239;28;20027;-80
2021/05/04 04:55:43;;;;;;;6.10;3.88;;;32.80;29.10;;;;;;4974513;28;20027;-81
2021/05/04 04:58:09;;;;;;;4.28;3.88;;;32.90;29.10;;;;;;4974675;28;20398;-82
2021/05/04 05:00:35;;;;;;;5.55;3.38;;;33.00;28.90;;;;;;4975905;28;20035;-82
2021/05/04 05:03:01;;;;;;;5.10;3.70;;;33.20;29.00;;;;;;5007190;28;20027;-82
2021/05/04 05:05:29;;;;;;;6.07;3.53;;;33.40;28.80;;;;;;4975843;28;20493;-82
2021/05/04 05:07:54;;;;;;;9.00;3.63;;;33.40;28.60;;;;;;4976520;28;20161;-81
2021/05/04 05:10:20;;;;;;;14.00;11.13;;;33.40;28.70;;;;;;4975353;28;20117;-82
2021/05/04 05:12:46;;;;;;;9.32;6.78;;;33.50;28.80;;;;;;4975514;28;20023;-82
2021/05/04 05:15:14;;;;;;;4.55;3.85;;;33.70;28.70;;;;;;4975405;28;20027;-82
2021/05/04 05:17:40;;;;;;;7.22;4.43;;;33.80;28.30;;;;;;4975380;28;20385;-80
2021/05/04 05:20:07;;;;;;;9.52;5.57;;;34.00;28.40;;;;;;4979881;28;20030;-83
2021/05/04 05:22:33;;;;;;;4.55;3.47;;;34.20;28.30;;;;;;4977465;28;20089;-85
2021/05/04 05:25:00;;;;;;;9.02;4.82;;;34.60;28.30;;;;;;4976529;28;20022;-81
2021/05/04 05:27:28;;;;;;;6.10;3.85;;;34.70;28.10;;;;;;4975423;28;20046;-82
2021/05/04 05:29:53;;;;;;;9.90;4.00;;;35.00;28.00;;;;;;4975851;28;20370;-82
2021/05/04 05:32:19;;;;;;;6.70;3.90;;;35.10;27.80;;;;;;4974580;28;20031;-82
2021/05/04 05:34:45;;;;;;;7.82;4.07;;;35.30;27.90;;;;;;5005794;28;20023;-82
2021/05/04 05:37:11;;;;;;;8.45;3.83;;;35.50;27.80;;;;;;4973899;28;20033;-82
2021/05/04 05:39:42;;;;;;;5.18;3.70;;;35.50;27.50;;;;;;4975150;28;20078;-81
2021/05/04 05:42:20;;;;;;;5.18;3.95;;;35.70;27.60;;;;;;5005695;28;20023;-82
2021/05/04 05:44:46;;;;;;;4.50;4.10;;;35.80;27.60;;;;;;5006241;28;20373;-78
2021/05/04 05:47:12;;;;;;;9.18;4.10;;;35.90;27.30;;;;;;5004733;28;20046;-78
2021/05/04 05:49:39;;;;;;;5.70;3.70;;;35.90;27.40;;;;;;4974150;28;20046;-79
2021/05/04 05:52:05;;;;;;;3.83;3.30;;;35.90;27.20;;;;;;4973193;28;20029;-78
2021/05/04 05:54:31;;;;;;;6.35;4.07;;;36.00;27.10;;;;;;4973413;28;20061;-79
2021/05/04 05:56:57;;;;;;;5.40;3.85;;;36.10;27.10;;;;;;4973445;28;20050;-78
2021/05/04 05:59:23;;;;;;;8.80;4.28;;;36.20;27.00;;;;;;4973588;28;20046;-79
2021/05/04 06:01:49;;;;;;;10.15;4.80;;;36.30;27.10;;;;;;4972485;28;20362;-79
2021/05/04 06:04:15;;;;;;;12.75;8.63;;;36.30;27.00;;;;;;4972602;28;20027;-78
2021/05/04 06:06:41;;;;;;;5.00;3.97;;;36.20;26.90;;;;;;4972756;28;20042;-78
2021/05/04 06:09:07;;;;;;;7.03;4.72;;;36.20;26.90;;;;;;4973201;28;20039;-77
2021/05/04 06:11:32;;;;;;;6.38;4.00;;;36.30;26.90;;;;;;4972113;28;20038;-77
2021/05/04 06:13:58;;;;;;;6.15;3.63;;;36.40;26.90;;;;;;4973737;28;20027;-79
2021/05/04 06:16:24;;;;;;;6.63;3.78;;;36.50;27.00;;;;;;4973136;28;20022;-79
2021/05/04 06:18:50;;;;;;;4.22;3.53;;;36.60;26.70;;;;;;4972988;28;20234;-78
2021/05/04 06:21:15;;;;;;;5.85;3.80;;;36.60;26.50;;;;;;4972979;28;20137;-78
2021/05/04 06:23:41;;;;;;;9.05;3.70;;;36.30;26.40;;;;;;4973065;28;20086;-78
2021/05/04 06:26:07;;;;;;;4.50;4.10;;;35.60;26.50;;;;;;4972754;28;20039;-77
2021/05/04 06:28:33;;;;;;;5.10;3.95;;;35.30;26.70;;;;;;4972874;28;20406;-76
2021/05/04 06:30:59;;;;;;;5.07;3.75;;;35.50;26.70;;;;;;4972777;28;20150;-78
2021/05/04 06:33:25;;;;;;;7.18;4.38;;;35.60;26.70;;;;;;4971302;28;20763;-76
2021/05/04 06:35:51;;;;;;;6.95;3.83;;;35.60;26.50;;;;;;4972986;28;20023;-77
2021/05/04 06:38:18;;;;;;;9.38;4.07;;;35.60;26.50;;;;;;4972822;28;20035;-81
2021/05/04 06:40:48;;;;;;;6.50;3.67;;;35.30;26.50;;;;;;4971966;28;20031;-78
2021/05/04 06:43:14;;;;;;;6.75;4.07;;;35.20;26.70;;;;;;4973629;28;20110;-81
2021/05/04 06:45:59;;;;;;;7.05;4.18;;;35.30;26.80;;;;;;4976512;28;20149;-79
2021/05/04 06:48:25;;;;;;;5.07;3.45;;;35.40;26.60;;;;;;4977592;28;20054;-78
2021/05/04 06:50:51;;;;;;;6.47;3.67;;;35.40;26.60;;;;;;4976342;28;20453;-80
2021/05/04 06:53:17;;;;;;;7.40;4.47;;;35.20;26.50;;;;;;4975181;28;20409;-79
2021/05/04 06:55:42;;;;;;;12.15;4.43;;;35.10;26.50;;;;;;4974474;28;20031;-79
2021/05/04 06:58:08;;;;;;;10.75;3.95;;;35.10;26.50;;;;;;4973113;28;20050;-79
2021/05/04 07:00:34;;;;;;;10.68;5.10;;;35.20;26.70;;;;;;4972408;28;20026;-81
2021/05/04 07:03:03;;;;;;;8.40;4.32;;;35.30;26.60;;;;;;4969371;28;20081;-84
2021/05/04 07:05:29;;;;;;;11.20;3.60;;;34.70;26.10;;;;;;4974601;28;20019;-80
2021/05/04 07:07:55;;;;;;;8.25;3.75;;;34.60;26.60;;;;;;4974333;28;20080;-80
2021/05/04 07:10:21;;;;;;;7.90;3.90;;;34.50;26.50;;;;;;4974669;28;20062;-81
2021/05/04 07:12:46;;;;;;;5.47;3.03;;;34.00;26.40;;;;;;4973606;28;20098;-82
2021/05/04 07:15:13;;;;;;;4.47;3.22;;;33.70;26.20;;;;;;4973061;28;20027;-81
2021/05/04 07:17:38;;;;;;;7.80;3.80;;;32.90;26.10;;;;;;4972558;28;20022;-81
2021/05/04 07:20:05;;;;;;;7.82;4.05;;;31.60;26.20;;;;;;4970711;28;20077;-81
2021/05/04 07:22:33;;;;;;;3.63;3.28;;;30.40;26.50;;;;;;4971347;28;20031;-81
2021/05/04 07:24:59;;;;;;;14.85;4.05;;;29.30;27.10;;;;;;4972819;28;20049;-80
2021/05/04 07:27:25;;;;;;;5.70;3.45;;;28.20;27.70;;;;;;4972719;28;20070;-81
2021/05/04 07:29:51;;;;;;;4.45;3.60;;;27.70;28.60;;;;;;4972915;28;20422;-82
2021/05/04 07:32:18;;;;;;;14.23;3.63;;;27.30;28.60;;;;;;4972063;28;20065;-83
2021/05/04 07:34:48;;;;;;;14.07;4.60;;;27.00;28.80;;;;;;4974217;28;20026;-82
2021/05/04 07:37:14;;;;;;;7.55;4.43;;;26.60;29.00;;;;;;4972027;28;20027;-81
2021/05/04 07:39:41;;;;;;;5.78;4.13;;;26.00;29.20;;;;;;4972776;28;20443;-81
2021/05/04 07:42:09;;;;;;;10.95;4.32;;;25.40;29.60;;;;;;4974360;28;20381;-82
2021/05/04 07:44:34;;;;;;;4.78;3.40;;;25.30;30.40;;;;;;4976305;28;20106;-82
2021/05/04 07:47:00;;;;;;;9.35;3.65;;;25.60;30.50;;;;;;4974574;28;20110;-82
2021/05/04 07:49:35;;;;;;;8.15;3.40;;;25.40;30.10;;;;;;4975655;28;20101;-82
2021/05/04 07:52:01;;;;;;;11.30;3.80;;;25.40;30.00;;;;;;4978902;28;20023;-83
2021/05/04 07:54:28;;;;;;;9.75;3.80;;;25.60;30.10;;;;;;4992392;28;20437;-82
2021/05/04 07:57:05;;;;;;;5.45;3.10;;;25.40;29.60;;;;;;4977541;28;20019;-83
2021/05/04 07:59:30;;;;;;;7.25;3.97;;;25.40;30.20;;;;;;4976393;28;20075;-81
2021/05/04 08:01:58;;;;;;;6.03;3.38;;;25.70;30.00;;;;;;4976816;28;20066;-82
2021/05/04 08:04:24;;;;;;;10.45;3.55;;;25.90;29.80;;;;;;4977382;28;20085;-82
2021/05/04 08:06:50;;;;;;;9.73;3.17;;;26.00;29.90;;;;;;4977065;28;20027;-83
2021/05/04 08:09:16;;;;;;;11.88;3.13;;;26.10;29.60;;;;;;4977106;28;20084;-81
2021/05/04 08:11:44;;;;;;;5.15;3.10;;;25.70;29.40;;;;;;4976238;28;20486;-82
2021/05/04 08:14:10;;;;;;;5.68;3.38;;;25.20;29.50;;;;;;4979088;28;20022;-83
2021/05/04 08:16:37;;;;;;;7.75;3.33;;;24.80;29.80;;;;;;4978318;28;20423;-82
2021/05/04 08:19:04;;;;;;;11.48;3.92;;;24.70;30.20;;;;;;4977846;28;20015;-80
2021/05/04 08:21:34;;;;;;;5.68;3.15;;;24.40;29.90;;;;;;4977116;28;20033;-82
2021/05/04 08:24:00;;;;;;;6.78;3.55;;;24.00;30.00;;;;;;4976345;28;20514;-82
2021/05/04 08:26:26;;;;;;;5.82;3.58;;;23.50;30.40;;;;;;4976433;28;20043;-82
2021/05/04 08:28:54;;;;;;;12.38;6.15;;;23.00;30.80;;;;;;4977131;28;20033;-82
2021/05/04 08:31:20;;;;;;;8.95;4.70;;;22.50;31.00;;;;;;4976446;28;20106;-82
2021/05/04 08:33:45;;;;;;;5.70;3.40;;;22.10;31.60;;;;;;4975071;28;20107;-82
2021/05/04 08:36:11;;;;;;;6.18;3.92;;;21.60;32.10;;;;;;4975503;28;20026;-82
2021/05/04 08:38:37;;;;;;;3.90;3.50;;;21.10;33.10;;;;;;4976493;28;20031;-82
2021/05/04 08:41:06;;;;;;;11.75;4.10;;;20.80;33.60;;;;;;4976414;28;20081;-82
2021/05/04 08:43:33;;;;;;;9.30;4.38;;;20.50;34.10;;;;;;4977774;28;20037;-82
2021/05/04 08:45:59;;;;;;;9.30;3.47;;;20.20;34.50;;;;;;4976221;28;20027;-82
2021/05/04 08:48:29;;;;;;;11.85;4.60;;;20.00;35.30;;;;;;4974629;28;20565;-83
2021/05/04 08:50:57;;;;;;;12.30;4.13;;;19.80;36.00;;;;;;4976216;28;20445;-82
2021/05/04 08:53:23;;;;;;;9.15;3.60;;;19.70;36.60;;;;;;4976601;28;20023;-83
2021/05/04 08:55:49;;;;;;;6.88;4.07;;;19.80;36.80;;;;;;4977091;28;20030;-82
2021/05/04 08:58:15;;;;;;;4.13;3.28;;;19.90;36.80;;;;;;4975223;28;20023;-82
2021/05/04 09:00:41;;;;;;;16.23;5.13;;;19.90;36.30;;;;;;4975369;28;20109;-83
2021/05/04 09:03:19;;;;;;;4.22;3.22;;;20.00;36.10;;;;;;4975000;28;20027;-83
2021/05/04 09:06:01;;;;;;;7.97;3.35;;;20.10;35.90;;;;;;4976146;28;20038;-83
2021/05/04 09:08:56;;;;;;;;;;;20.10;35.50;;;;;;4975815;28;20041;-83
2021/05/04 09:17:15;;;;;;;4.90;4.40;;;19.60;37.50;;;;;;4976537;28;20089;-82
2021/05/04 09:22:41;;;;;;;3.63;3.20;;;19.70;39.40;;;;;;4976050;28;20023;-82
2021/05/04 09:25:29;;;;;;;4.80;2.90;;;20.10;38.90;;;;;;4979201;28;20039;-83
2021/05/04 09:28:03;;;;;;;6.70;3.10;;;20.30;37.10;;;;;;4975977;28;20494;-83
2021/05/04 09:30:29;;;;;;;3.75;3.33;;;20.40;36.30;;;;;;4975711;28;20041;-84
2021/05/04 09:32:55;;;;;;;5.88;3.42;;;20.30;35.90;;;;;;4976100;28;20023;-83
2021/05/04 09:35:30;;;;;;;3.95;2.60;;;20.20;35.60;;;;;;4975921;28;20019;-82
2021/05/04 09:38:03;;;;;;;7.90;3.70;;;19.80;35.40;;;;;;4974752;28;20117;-82
2021/05/04 09:40:32;;;;;;;9.57;2.92;;;19.60;35.60;;;;;;4975129;28;20449;-83
2021/05/04 09:42:59;;;;;;;3.55;3.20;;;19.50;36.10;;;;;;4975569;28;20027;-83
2021/05/04 09:45:26;;;;;;;4.55;2.97;;;19.50;36.50;;;;;;4975823;28;20110;-82
2021/05/04 09:48:07;;;;;;;8.13;3.33;;;19.70;36.60;;;;;;4975651;28;20041;-82
2021/05/04 09:51:08;;;;;;;6.82;3.47;;;19.80;36.00;;;;;;4975469;28;20027;-83
2021/05/04 09:56:12;;;;;;;3.08;2.50;;;20.00;35.50;;;;;;4976167;28;20023;-82
2021/05/04 09:58:45;;;;;;;3.67;2.58;;;20.00;35.60;;;;;;4975712;28;20018;-83
2021/05/04 10:01:17;;;;;;;3.33;2.80;;;20.00;35.20;;;;;;4975853;28;20061;-83
2021/05/04 10:03:44;;;;;;;6.18;3.10;;;19.90;35.20;;;;;;4985591;28;20031;-86
2021/05/04 10:06:12;;;;;;;7.63;3.25;;;19.80;35.90;;;;;;4977710;28;20433;-85
2021/05/04 10:08:39;;;;;;;7.07;2.90;;;19.50;37.10;;;;;;4977977;28;20034;-86
2021/05/04 10:11:18;;;;;;;3.72;3.25;;;19.20;38.40;;;;;;4976198;28;20031;-86
2021/05/04 10:13:53;;;;;;;7.43;3.28;;;18.90;40.10;;;;;;4977237;28;20027;-86
2021/05/04 10:16:26;;;;;;;3.88;2.60;;;18.60;41.40;;;;;;4977509;28;20465;-86
2021/05/04 10:19:00;;;;;;;3.58;3.25;;;18.50;42.40;;;;;;4978359;28;20023;-82
2021/05/04 10:21:26;;;;;;;2.65;2.25;;;18.60;42.60;;;;;;4973758;28;20362;-83
2021/05/04 10:23:52;;;;;;;11.57;2.75;;;18.70;41.70;;;;;;4974779;28;20350;-82
2021/05/04 10:26:19;;;;;;;3.28;2.60;;;18.80;41.30;;;;;;4974672;28;20050;-83
2021/05/04 10:29:10;;;;;;;4.15;2.47;;;18.90;41.00;;;;;;4974592;28;20027;-83
2021/05/04 10:31:47;;;;;;;2.63;2.38;;;19.00;40.30;;;;;;4974036;28;20050;-83
2021/05/04 10:34:36;;;;;;;4.05;2.63;;;19.00;39.80;;;;;;4973530;28;20023;-81
2021/05/04 10:37:05;;;;;;;8.68;2.50;;;19.10;39.10;;;;;;4969180;28;20119;-81
2021/05/04 10:39:38;;;;;;;5.00;2.63;;;19.20;38.70;;;;;;4974945;28;20094;-81
2021/05/04 10:42:09;;;;;;;5.60;2.63;;;19.10;38.40;;;;;;4974560;28;20122;-82
2021/05/04 10:44:57;;;;;;;12.55;3.28;;;19.00;38.10;;;;;;4974256;28;20023;-82
2021/05/04 10:47:50;;;;;;;6.43;2.60;;;18.80;38.40;;;;;;4973911;28;20038;-82
2021/05/04 10:50:26;;;;;;;3.17;2.70;;;18.70;38.50;;;;;;4971889;28;20046;-81
2021/05/04 10:52:59;;;;;;;4.45;2.80;;;18.70;38.40;;;;;;4973860;28;20358;-83
2021/05/04 10:55:59;;;;;;;6.28;3.20;;;18.60;38.30;;;;;;4972284;28;20382;-82
2021/05/04 10:58:25;;;;;;;8.60;3.03;;;18.70;38.00;;;;;;4974438;28;20026;-81
2021/05/04 11:01:10;;;;;;;11.05;3.22;;;18.70;37.90;;;;;;4973902;28;20031;-83
2021/05/04 11:03:35;;;;;;;3.10;2.53;;;18.80;37.80;;;;;;4972801;28;20027;-81
2021/05/04 11:06:09;;;;;;;7.45;3.03;;;18.80;37.50;;;;;;4973787;28;20046;-82
2021/05/04 11:08:44;;;;;;;8.50;5.25;;;18.70;37.40;;;;;;4973853;28;20085;-82
2021/05/04 11:11:23;;;;;;;5.18;2.47;;;18.70;37.50;;;;;;4976014;28;20389;-86
2021/05/04 11:13:57;;;;;;;7.03;2.78;;;18.60;38.10;;;;;;4977994;28;20102;-84
2021/05/04 11:16:29;;;;;;;5.47;3.22;;;18.50;38.30;;;;;;4988566;28;20026;-85
2021/05/04 11:19:11;;;;;;;8.18;2.90;;;18.40;38.50;;;;;;4977432;28;20019;-85
2021/05/04 11:21:41;;;;;;;7.00;3.10;;;18.40;38.40;;;;;;4975055;28;20038;-85
2021/05/04 11:24:21;;;;;;;4.25;2.80;;;18.40;38.30;;;;;;4979696;28;20091;-86
2021/05/04 11:26:49;;;;;;;6.32;2.78;;;18.40;38.20;;;;;;4980137;28;20058;-85
2021/05/04 11:29:19;;;;;;;10.07;5.85;;;18.60;38.30;;;;;;4978686;28;20034;-87
2021/05/04 11:31:50;;;;;;;6.80;3.63;;;18.90;38.60;;;;;;4979992;28;20030;-87
2021/05/04 11:34:44;;;;;;;8.05;3.38;;;19.10;38.50;;;;;;4980314;28;20474;-87
2021/05/04 11:37:12;;;;;;;7.55;2.92;;;19.30;38.10;;;;;;4978708;28;20118;-86
2021/05/04 11:39:57;;;;;;;7.32;2.53;;;19.40;37.80;;;;;;4980635;28;20397;-87
2021/05/04 11:42:50;;;;;;;7.38;2.20;;;19.50;37.30;;;;;;4978851;28;20019;-86
2021/05/04 11:45:19;;;;;;;7.22;2.13;;;19.50;36.60;;;;;;4978450;28;20033;-86
2021/05/04 11:47:45;;;;;;;6.32;2.40;;;19.50;36.40;;;;;;4980672;28;20089;-86
2021/05/04 11:50:13;;;;;;;4.88;2.30;;;19.50;36.30;;;;;;4988955;28;20023;-85
2021/05/04 11:52:41;;;;;;;3.70;2.45;;;19.60;36.20;;;;;;4989737;28;20153;-86
2021/05/04 11:55:28;;;;;;;6.05;3.78;;;19.70;36.20;;;;;;4982209;28;20034;-86
2021/05/04 11:58:02;;;;;;;5.13;2.80;;;19.80;35.80;;;;;;4979892;28;20117;-86
2021/05/04 12:00:30;;;;;;;5.43;2.83;;;19.80;35.50;;;;;;4980377;28;20019;-87
2021/05/04 12:03:03;;;;;;;5.30;2.22;;;19.80;35.50;;;;;;4984249;28;20053;-84
2021/05/04 12:05:30;;;;;;;6.18;2.60;;;19.80;35.50;;;;;;4995290;28;20102;-84
2021/05/04 12:07:57;;;;;;;3.95;2.40;;;19.60;35.30;;;;;;4994633;28;20022;-86
2021/05/04 12:10:28;;;;;;;3.83;2.53;;;19.50;35.60;;;;;;4992144;28;20374;-84
2021/05/04 12:13:05;;;;;;;5.70;3.03;;;19.30;36.50;;;;;;4989297;28;20019;-86
2021/05/04 12:15:33;;;;;;;6.97;3.45;;;19.00;37.90;;;;;;4984740;28;20041;-85
2021/05/04 12:18:02;;;;;;;8.15;2.80;;;18.90;38.80;;;;;;4982657;28;20031;-86
2021/05/04 12:20:48;;;;;;;9.10;3.33;;;18.90;39.20;;;;;;4978994;28;20374;-85
2021/05/04 12:23:31;;;;;;;8.15;3.20;;;19.00;39.40;;;;;;4977932;28;20031;-86
2021/05/04 12:26:03;;;;;;;7.25;2.92;;;18.90;38.90;;;;;;4991707;28;20050;-84
2021/05/04 12:28:32;;;;;;;3.40;3.03;;;18.80;38.60;;;;;;4982687;28;20030;-88
2021/05/04 12:31:09;;;;;;;4.60;2.83;;;18.50;38.60;;;;;;4978391;28;20493;-86
2021/05/04 12:33:37;;;;;;;10.60;3.00;;;18.30;38.90;;;;;;4979421;28;20048;-87
2021/05/04 12:36:07;;;;;;;4.97;2.90;;;18.30;39.20;;;;;;4981637;28;20023;-87
2021/05/04 12:41:16;;;;;;;;;;;18.10;38.90;;;;;;4983906;28;20033;-87
2021/05/04 12:44:05;;;;;;;6.43;3.17;;;18.10;38.70;;;;;;4977693;28;19996;-87
2021/05/04 12:46:31;;;;;;;5.75;3.13;;;18.00;38.60;;;;;;4978731;28;20027;-87
2021/05/04 12:49:00;;;;;;;2.85;2.35;;;17.90;38.60;;;;;;4979339;28;20094;-87
2021/05/04 12:51:35;;;;;;;3.97;2.50;;;17.90;38.60;;;;;;4979941;28;20370;-86
2021/05/04 12:54:22;;;;;;;3.35;2.70;;;17.80;38.70;;;;;;4979363;28;20029;-87
2021/05/04 12:56:52;;;;;;;6.55;2.92;;;17.70;38.90;;;;;;4979726;28;20031;-88
2021/05/04 12:59:30;;;;;;;5.25;2.92;;;17.70;39.10;;;;;;4983151;28;20026;-85
2021/05/04 13:02:05;;;;;;;7.15;2.83;;;17.80;39.30;;;;;;4992594;28;20106;-86
2021/05/04 13:04:44;;;;;;;5.20;2.47;;;17.80;39.20;;;;;;4978972;28;20100;-87
2021/05/04 13:07:36;;;;;;;3.75;2.33;;;17.80;38.80;;;;;;4979166;28;20507;-85
2021/05/04 13:10:15;;;;;;;7.27;2.50;;;17.70;38.10;;;;;;4978503;28;20126;-85